LFRG 181630Z AUTO 30007KT 260V340 9999 BKN012 20/17 Q1017 BECMG BKN020

ElémentsDécodage
LFRG Station météo située sur l'aérodrome de DEAUVILLE Saint-Gatien
181630Z émis le 18 du mois à 16h30 UTC
AUTO Bulletin édité par un automate
30007KT vent du 300°, 07 noeuds
260V340 vent de direction variable entre 260° et 340°
9999 visibilité horizontale supérieure à 10 Km
BKN012 nuages morcelés (5/8 à 7/8) à 1200 pieds
20/17 température 20°C, point de rosée 17°C
 soit une humidité relative de 83%
Q1017 la pression au niveau de la mer (QNH) est de 1017 hPa
BECMG fluctuation du temps prévue
BKN020 nuages morcelés (5/8 à 7/8) à 2000 pieds